Time;durP1;ratioP1;P1;durP2;ratioP2;P2;SDS_P1;SDS_P2;PMS_P1;PMS_P2;Temp;Humidity;BMP_temperature;BMP_pressure;BME280_temperature;BME280_humidity;BME280_pressure;Samples;Min_cycle;Max_cycle;Signal;HPM_P1;HPM_P2
2022/04/24 00:01:39;;;;;;;20.23;10.48;;;8.90;99.90;;;;;;4934415;29;20043;-53
2022/04/24 00:04:06;;;;;;;20.60;11.55;;;9.00;99.90;;;;;;4931665;29;20047;-52
2022/04/24 00:06:34;;;;;;;18.48;11.70;;;8.90;99.90;;;;;;4925877;29;20118;-52
2022/04/24 00:09:01;;;;;;;19.38;11.48;;;9.00;99.90;;;;;;4933849;29;20064;-54
2022/04/24 00:11:30;;;;;;;16.20;10.15;;;9.00;99.90;;;;;;4934138;29;20052;-53
2022/04/24 00:13:57;;;;;;;19.60;11.48;;;9.00;99.90;;;;;;4920982;29;20053;-51
2022/04/24 00:16:24;;;;;;;13.88;8.68;;;9.00;99.90;;;;;;4925584;29;20059;-52
2022/04/24 00:18:51;;;;;;;12.45;6.57;;;9.10;99.90;;;;;;4934669;29;20460;-53
2022/04/24 00:21:17;;;;;;;11.90;6.40;;;9.10;99.90;;;;;;4934187;29;20223;-53
2022/04/24 00:23:44;;;;;;;12.77;6.05;;;9.10;99.90;;;;;;4927426;29;20108;-54
2022/04/24 00:26:11;;;;;;;12.20;6.65;;;9.10;99.90;;;;;;4926128;29;20416;-52
2022/04/24 00:28:37;;;;;;;16.97;9.63;;;9.10;99.90;;;;;;4934404;29;20059;-51
2022/04/24 00:31:04;;;;;;;16.23;9.13;;;9.00;99.90;;;;;;4932700;29;20630;-52
2022/04/24 00:33:31;;;;;;;26.17;13.80;;;9.00;99.90;;;;;;4918352;29;20390;-51
2022/04/24 00:35:58;;;;;;;26.50;14.48;;;8.90;99.90;;;;;;4926394;29;20047;-54
2022/04/24 00:38:24;;;;;;;22.27;13.10;;;8.90;99.90;;;;;;4933932;29;20048;-52
2022/04/24 00:40:53;;;;;;;23.08;12.70;;;8.90;99.90;;;;;;4933834;29;20496;-55
2022/04/24 00:43:20;;;;;;;24.77;14.32;;;8.90;99.90;;;;;;4923882;29;20043;-52
2022/04/24 00:46:18;;;;;;;27.25;15.02;;;8.40;99.90;;;;;;4920839;29;20087;-51
2022/04/24 00:48:45;;;;;;;31.30;17.55;;;8.20;99.90;;;;;;4934128;29;20076;-53
2022/04/24 00:51:12;;;;;;;33.33;18.15;;;8.10;99.90;;;;;;4921322;29;20056;-51
2022/04/24 00:53:39;;;;;;;33.10;17.52;;;8.00;99.90;;;;;;4926536;29;20043;-52
2022/04/24 00:56:06;;;;;;;30.17;16.55;;;7.90;99.90;;;;;;4938178;29;20032;-51
2022/04/24 00:58:33;;;;;;;29.23;16.73;;;7.80;99.90;;;;;;4937996;29;20043;-52
2022/04/24 01:01:00;;;;;;;21.30;10.57;;;7.80;99.90;;;;;;4934230;29;20504;-51
2022/04/24 01:03:28;;;;;;;;;;;7.90;99.90;;;;;;4922735;29;20268;-53
2022/04/24 01:05:55;;;;;;;13.13;7.28;;;8.00;99.90;;;;;;4937932;29;19974;-54
2022/04/24 01:08:22;;;;;;;;;;;8.20;99.90;;;;;;4933517;29;20047;-52
2022/04/24 01:10:48;;;;;;;14.18;8.02;;;8.20;99.90;;;;;;4929558;29;19974;-54
2022/04/24 01:13:15;;;;;;;25.48;12.48;;;8.30;99.90;;;;;;4937821;29;20047;-51
2022/04/24 01:15:42;;;;;;;26.63;12.60;;;8.40;99.90;;;;;;4937700;29;20448;-53
2022/04/24 01:18:10;;;;;;;23.08;13.70;;;8.40;99.90;;;;;;4925032;29;20090;-52
2022/04/24 01:20:36;;;;;;;;;;;8.40;99.90;;;;;;4937780;29;20044;-51
2022/04/24 01:23:04;;;;;;;27.20;13.48;;;8.40;99.90;;;;;;4937730;29;19977;-51
2022/04/24 01:25:30;;;;;;;;;;;8.40;99.90;;;;;;4928272;29;20040;-52
2022/04/24 01:27:57;;;;;;;16.55;8.20;;;8.40;99.90;;;;;;4933664;29;19966;-53
2022/04/24 01:30:24;;;;;;;15.55;7.82;;;8.40;99.90;;;;;;4937022;29;20048;-51
2022/04/24 01:32:51;;;;;;;17.17;8.55;;;8.40;99.90;;;;;;4922082;29;20061;-52
2022/04/24 01:35:18;;;;;;;27.13;10.63;;;8.40;99.90;;;;;;4929405;29;20381;-51
2022/04/24 01:37:45;;;;;;;31.77;17.58;;;8.40;99.90;;;;;;4937298;29;20044;-51
2022/04/24 01:40:11;;;;;;;38.78;19.95;;;8.40;99.90;;;;;;4928056;29;20114;-52
2022/04/24 01:42:38;;;;;;;35.90;19.83;;;8.40;99.90;;;;;;4930909;29;20044;-53
2022/04/24 01:45:06;;;;;;;38.60;19.75;;;8.40;99.90;;;;;;4937273;29;20044;-54
2022/04/24 01:47:32;;;;;;;;;;;8.40;99.90;;;;;;4927255;29;20048;-52
2022/04/24 01:49:59;;;;;;;41.33;18.30;;;8.40;99.90;;;;;;4928728;29;19923;-53
2022/04/24 01:52:26;;;;;;;42.00;19.23;;;8.40;99.90;;;;;;4937255;29;20545;-53
2022/04/24 01:54:52;;;;;;;24.20;10.30;;;8.40;99.90;;;;;;4925464;29;20044;-53
2022/04/24 01:57:19;;;;;;;20.05;11.77;;;8.30;99.90;;;;;;4926985;29;20044;-53
2022/04/24 01:59:46;;;;;;;28.95;15.43;;;7.90;99.90;;;;;;4936525;29;20043;-53
2022/04/24 02:02:13;;;;;;;24.60;13.98;;;7.60;99.90;;;;;;4933518;29;20686;-54
2022/04/24 02:04:40;;;;;;;28.05;15.73;;;7.50;99.90;;;;;;4919325;29;20052;-52
2022/04/24 02:07:07;;;;;;;28.70;15.30;;;7.30;99.90;;;;;;4933243;29;21409;-51
2022/04/24 02:09:35;;;;;;;30.48;15.68;;;7.30;99.90;;;;;;4936611;29;20415;-51
2022/04/24 02:12:02;;;;;;;27.67;14.88;;;7.30;99.90;;;;;;4922216;29;20044;-51
2022/04/24 02:14:28;;;;;;;30.83;14.80;;;7.40;99.90;;;;;;4936564;29;20444;-52
2022/04/24 02:16:55;;;;;;;26.08;13.73;;;7.40;99.90;;;;;;4936418;29;20051;-51
2022/04/24 02:19:22;;;;;;;21.73;11.05;;;7.50;99.90;;;;;;4932139;29;20043;-51
2022/04/24 02:21:49;;;;;;;18.50;8.98;;;7.50;99.90;;;;;;4920233;29;20493;-52
2022/04/24 02:24:16;;;;;;;20.83;10.50;;;7.50;99.90;;;;;;4935102;29;20051;-51
2022/04/24 02:26:43;;;;;;;27.92;14.70;;;7.50;99.90;;;;;;4936380;29;20059;-52
2022/04/24 02:29:09;;;;;;;31.77;15.63;;;7.20;99.90;;;;;;4926966;29;20055;-52
2022/04/24 02:31:36;;;;;;;29.35;15.70;;;7.10;99.90;;;;;;4927942;29;20055;-52
2022/04/24 02:34:03;;;;;;;26.83;14.43;;;6.90;99.90;;;;;;4936477;29;20445;-51
2022/04/24 02:36:30;;;;;;;20.48;10.25;;;6.90;99.90;;;;;;4936392;29;20099;-52
2022/04/24 02:38:56;;;;;;;16.63;8.25;;;6.90;99.90;;;;;;4935703;23;20462;-58
2022/04/24 02:41:35;;;;;;;23.30;11.23;;;6.90;99.90;;;;;;4915400;29;20103;-58
2022/04/24 02:44:27;;;;;;;21.60;12.43;;;7.00;99.90;;;;;;4917220;29;20075;-58
2022/04/24 02:46:54;;;;;;;21.38;10.57;;;7.20;99.90;;;;;;4915024;29;20557;-58
2022/04/24 02:49:21;;;;;;;24.35;12.90;;;7.20;99.90;;;;;;4913634;29;20565;-58
2022/04/24 02:51:47;;;;;;;23.63;12.05;;;7.20;99.90;;;;;;4917718;29;20044;-58
2022/04/24 02:54:14;;;;;;;17.85;10.13;;;7.20;99.90;;;;;;4933972;29;20047;-58
2022/04/24 02:56:41;;;;;;;16.48;7.70;;;7.20;99.90;;;;;;4931898;29;20575;-58
2022/04/24 02:59:08;;;;;;;11.80;7.18;;;7.20;99.90;;;;;;4914148;29;20056;-58
2022/04/24 03:01:35;;;;;;;11.75;6.50;;;7.20;99.90;;;;;;4916722;29;20100;-58
2022/04/24 03:04:01;;;;;;;10.48;6.25;;;7.20;99.90;;;;;;4917012;29;20057;-58
2022/04/24 03:06:28;;;;;;;13.93;7.03;;;7.20;99.90;;;;;;4915066;29;20124;-58
2022/04/24 03:08:55;;;;;;;10.25;5.93;;;7.20;99.90;;;;;;4916500;29;20059;-58
2022/04/24 03:11:22;;;;;;;13.93;6.63;;;7.30;99.90;;;;;;4916238;29;20431;-58
2022/04/24 03:13:48;;;;;;;19.67;7.40;;;7.20;99.90;;;;;;4910550;29;20361;-58
2022/04/24 03:16:15;;;;;;;18.23;10.15;;;7.10;99.90;;;;;;4914933;29;20501;-58
2022/04/24 03:18:42;;;;;;;23.20;10.95;;;7.00;99.90;;;;;;4916418;29;20036;-58
2022/04/24 03:21:09;;;;;;;20.17;10.23;;;7.00;99.90;;;;;;4916010;29;20501;-58
2022/04/24 03:23:35;;;;;;;22.10;11.02;;;6.90;99.90;;;;;;4909544;29;20048;-58
2022/04/24 03:26:02;;;;;;;15.77;8.82;;;6.80;99.90;;;;;;4916345;29;20056;-58
2022/04/24 03:28:29;;;;;;;20.30;10.45;;;6.80;99.90;;;;;;4916353;29;20506;-58
2022/04/24 03:30:56;;;;;;;15.43;7.55;;;6.90;99.90;;;;;;4915993;29;20044;-58
2022/04/24 03:33:22;;;;;;;14.90;8.40;;;7.00;99.90;;;;;;4914535;29;20043;-57
2022/04/24 03:35:49;;;;;;;12.85;7.15;;;7.00;99.90;;;;;;4916169;29;20107;-58
2022/04/24 03:38:16;;;;;;;12.85;5.75;;;7.00;99.90;;;;;;4916032;29;20052;-58
2022/04/24 03:40:43;;;;;;;11.77;4.28;;;7.00;99.90;;;;;;4910816;29;20037;-58
2022/04/24 03:43:10;;;;;;;12.82;4.68;;;7.10;99.90;;;;;;4913518;29;20505;-58
2022/04/24 03:45:36;;;;;;;13.38;7.10;;;7.10;99.90;;;;;;4916173;29;20112;-58
2022/04/24 03:48:03;;;;;;;15.57;8.00;;;7.00;99.90;;;;;;4916040;29;20036;-57
2022/04/24 03:50:30;;;;;;;15.18;8.00;;;6.90;99.90;;;;;;4908748;29;20051;-58
2022/04/24 03:52:57;;;;;;;14.80;7.73;;;6.90;99.90;;;;;;4915930;29;20446;-58
2022/04/24 03:55:24;;;;;;;12.23;7.00;;;6.80;99.90;;;;;;4915667;29;20295;-58
2022/04/24 03:57:50;;;;;;;15.70;8.10;;;6.80;99.90;;;;;;4911953;29;20053;-58
2022/04/24 04:00:18;;;;;;;12.38;6.60;;;6.80;99.90;;;;;;4914149;29;20545;-58
2022/04/24 04:02:45;;;;;;;;;;;6.90;99.90;;;;;;4916087;29;20048;-58
2022/04/24 04:05:13;;;;;;;11.25;5.13;;;7.00;99.90;;;;;;4915576;29;19923;-58
2022/04/24 04:07:39;;;;;;;;;;;7.00;99.90;;;;;;4912309;29;20156;-58
2022/04/24 04:10:07;;;;;;;5.20;2.95;;;7.10;99.90;;;;;;4912481;29;19993;-58
2022/04/24 04:12:34;;;;;;;6.30;2.97;;;7.10;99.90;;;;;;4915677;29;20056;-58
2022/04/24 04:15:02;;;;;;;9.10;4.00;;;7.10;99.90;;;;;;4915452;29;20044;-58
2022/04/24 04:17:29;;;;;;;10.88;5.20;;;7.00;99.90;;;;;;4907645;29;20107;-58
2022/04/24 04:19:56;;;;;;;10.15;5.05;;;7.10;99.90;;;;;;4915123;29;20048;-58
2022/04/24 04:22:23;;;;;;;13.70;8.43;;;7.10;99.90;;;;;;4915638;29;20055;-58
2022/04/24 04:24:49;;;;;;;17.88;8.25;;;7.20;99.90;;;;;;4911887;29;20064;-58
2022/04/24 04:27:16;;;;;;;15.50;6.80;;;7.20;99.90;;;;;;4913825;29;20103;-58
2022/04/24 04:29:43;;;;;;;10.60;4.85;;;7.20;99.90;;;;;;4914438;29;20055;-57
2022/04/24 04:32:10;;;;;;;5.15;2.65;;;7.20;99.90;;;;;;4915421;29;20056;-58
2022/04/24 04:34:37;;;;;;;3.28;2.00;;;7.20;99.90;;;;;;4912033;29;20139;-58
2022/04/24 04:37:04;;;;;;;3.83;2.33;;;7.30;99.90;;;;;;4912336;29;20059;-58
2022/04/24 04:39:31;;;;;;;4.65;2.13;;;7.40;99.90;;;;;;4914665;29;20092;-58
2022/04/24 04:41:57;;;;;;;4.10;1.63;;;7.40;99.90;;;;;;4915158;29;20062;-58
2022/04/24 04:44:24;;;;;;;2.63;1.60;;;7.50;99.90;;;;;;4915063;29;20292;-58
2022/04/24 04:46:51;;;;;;;9.50;2.55;;;7.60;99.90;;;;;;4915102;29;20092;-57
2022/04/24 04:49:18;;;;;;;5.32;2.28;;;7.60;99.90;;;;;;4915065;29;20461;-58
2022/04/24 04:51:45;;;;;;;2.35;1.60;;;7.70;99.90;;;;;;4906892;29;20111;-58
2022/04/24 04:54:11;;;;;;;9.70;4.47;;;7.80;99.90;;;;;;4915130;29;20055;-58
2022/04/24 04:56:39;;;;;;;11.50;4.25;;;7.70;99.90;;;;;;4915290;29;20044;-58
2022/04/24 04:59:05;;;;;;;;;;;7.60;99.90;;;;;;4912109;29;20063;-58
2022/04/24 05:01:32;;;;;;;9.57;5.68;;;7.60;99.90;;;;;;4914665;29;19922;-58
2022/04/24 05:03:59;;;;;;;11.05;5.38;;;7.60;99.90;;;;;;4914941;29;20056;-58
2022/04/24 05:06:26;;;;;;;10.30;5.32;;;7.70;99.90;;;;;;4909449;29;20501;-58
2022/04/24 05:08:52;;;;;;;15.00;8.40;;;7.80;99.90;;;;;;4914964;29;20044;-58
2022/04/24 05:11:19;;;;;;;9.23;5.22;;;8.00;99.90;;;;;;4914946;29;20063;-58
2022/04/24 05:13:46;;;;;;;10.20;5.60;;;8.10;99.90;;;;;;4914783;29;20044;-58
2022/04/24 05:16:12;;;;;;;12.45;6.25;;;8.40;99.90;;;;;;4913280;29;20115;-58
2022/04/24 05:18:39;;;;;;;9.20;5.25;;;8.50;99.90;;;;;;4914891;29;20054;-58
2022/04/24 05:21:06;;;;;;;9.20;5.25;;;8.70;99.90;;;;;;4914631;29;20055;-58
2022/04/24 05:23:33;;;;;;;16.60;6.23;;;8.80;99.90;;;;;;4912316;29;20048;-58
2022/04/24 05:25:59;;;;;;;6.77;4.37;;;8.90;99.90;;;;;;4911179;29;20288;-58
2022/04/24 05:28:26;;;;;;;7.88;3.85;;;9.10;99.90;;;;;;4914774;29;20296;-58
2022/04/24 05:30:54;;;;;;;12.10;3.35;;;9.30;99.90;;;;;;4914680;29;20048;-58
2022/04/24 05:33:21;;;;;;;2.35;1.20;;;9.50;99.90;;;;;;4909022;29;20493;-58
2022/04/24 05:35:49;;;;;;;2.55;1.65;;;9.90;99.90;;;;;;4914811;29;20501;-58
2022/04/24 05:38:16;;;;;;;2.50;1.35;;;10.30;99.90;;;;;;4914673;29;20096;-58
2022/04/24 05:40:43;;;;;;;1.55;0.50;;;10.70;99.90;;;;;;4916281;29;20048;-58
2022/04/24 05:43:10;;;;;;;6.95;3.63;;;11.00;99.90;;;;;;4917090;29;20450;-58
2022/04/24 05:45:36;;;;;;;6.82;4.05;;;11.30;99.90;;;;;;4918245;29;20119;-59
2022/04/24 05:48:04;;;;;;;6.45;4.18;;;11.40;99.90;;;;;;4918227;29;20051;-58
2022/04/24 05:50:30;;;;;;;11.57;5.30;;;11.50;99.90;;;;;;4913718;29;20048;-59
2022/04/24 05:52:57;;;;;;;6.22;4.05;;;11.50;99.90;;;;;;4913974;29;20052;-58
2022/04/24 05:55:24;;;;;;;3.53;2.50;;;11.40;99.90;;;;;;4918208;29;20048;-58
2022/04/24 05:57:51;;;;;;;;;;;11.40;99.90;;;;;;4918355;29;20127;-58
2022/04/24 06:00:19;;;;;;;6.03;3.03;;;11.50;99.90;;;;;;4909584;29;20341;-58
2022/04/24 06:02:51;;;;;;;3.10;1.80;;;11.50;99.90;;;;;;4917662;29;20553;-59
2022/04/24 06:05:18;;;;;;;3.97;2.63;;;11.60;99.90;;;;;;4918048;29;20048;-58
2022/04/24 06:07:45;;;;;;;5.18;2.20;;;11.60;99.90;;;;;;4915949;29;20466;-58
2022/04/24 06:10:12;;;;;;;4.43;2.03;;;11.70;99.90;;;;;;4915332;29;20052;-59
2022/04/24 06:12:53;;;;;;;6.93;1.60;;;11.80;99.90;;;;;;4917806;29;20100;-58
2022/04/24 06:15:24;;;;;;;1.98;0.80;;;12.00;99.90;;;;;;4915877;29;20059;-59
2022/04/24 06:17:57;;;;;;;2.50;1.65;;;12.10;99.90;;;;;;4912917;29;20044;-59
2022/04/24 06:20:25;;;;;;;3.05;1.88;;;12.30;99.90;;;;;;4917334;29;20058;-59
2022/04/24 06:22:57;;;;;;;2.72;1.60;;;12.40;99.90;;;;;;4917466;29;20048;-58
2022/04/24 06:25:27;;;;;;;5.72;1.40;;;12.30;99.90;;;;;;4914680;29;20104;-58
2022/04/24 06:27:54;;;;;;;2.67;1.23;;;12.30;99.90;;;;;;4917501;29;20525;-58
2022/04/24 06:30:24;;;;;;;1.42;1.00;;;12.50;99.90;;;;;;4916961;29;20052;-59
2022/04/24 06:32:50;;;;;;;3.10;1.30;;;12.50;99.90;;;;;;4913639;29;20104;-59
2022/04/24 06:35:18;;;;;;;2.20;1.45;;;12.60;99.90;;;;;;4917122;29;20091;-59
2022/04/24 06:37:47;;;;;;;5.72;3.40;;;12.70;99.90;;;;;;4916907;29;20040;-59
2022/04/24 06:40:15;;;;;;;5.10;2.95;;;12.70;99.90;;;;;;4917133;29;20051;-59
2022/04/24 06:43:01;;;;;;;5.53;3.85;;;12.70;99.90;;;;;;4912110;29;20048;-58
2022/04/24 06:45:30;;;;;;;6.53;3.58;;;12.50;99.90;;;;;;4909074;29;20048;-58
2022/04/24 06:48:04;;;;;;;8.02;3.55;;;12.50;99.90;;;;;;4916981;29;20560;-59
2022/04/24 06:50:33;;;;;;;8.32;3.78;;;12.70;99.90;;;;;;4913633;29;20048;-59
2022/04/24 06:53:07;;;;;;;7.40;4.53;;;13.00;99.90;;;;;;4912754;29;20063;-59
2022/04/24 06:55:36;;;;;;;11.15;5.78;;;13.30;99.90;;;;;;4899826;29;20096;-59
2022/04/24 06:58:05;;;;;;;10.13;6.28;;;13.70;99.90;;;;;;4916690;29;20048;-58
2022/04/24 07:00:34;;;;;;;12.48;7.07;;;13.70;99.90;;;;;;4912422;29;20044;-59
2022/04/24 07:03:21;;;;;;;14.10;8.15;;;13.90;99.90;;;;;;4916911;29;20056;-59
2022/04/24 07:05:50;;;;;;;15.80;7.43;;;14.20;99.90;;;;;;4916357;29;20048;-59
2022/04/24 07:08:17;;;;;;;11.35;7.57;;;14.40;99.90;;;;;;4916600;29;20044;-59
2022/04/24 07:10:44;;;;;;;16.63;7.97;;;14.40;99.90;;;;;;4910545;29;20040;-59
2022/04/24 07:13:10;;;;;;;13.90;8.75;;;14.30;99.90;;;;;;4916588;29;20111;-59
2022/04/24 07:15:40;;;;;;;14.05;8.93;;;14.10;99.90;;;;;;4916254;29;20044;-59
2022/04/24 07:18:10;;;;;;;13.48;8.00;;;13.90;99.90;;;;;;4914160;29;20064;-59
2022/04/24 07:20:37;;;;;;;16.17;8.68;;;14.00;99.90;;;;;;4915834;29;20093;-59
2022/04/24 07:23:07;;;;;;;17.88;9.43;;;14.10;99.90;;;;;;4915987;29;20044;-59
2022/04/24 07:25:34;;;;;;;14.23;9.20;;;14.10;99.90;;;;;;4915059;29;20044;-59
2022/04/24 07:28:00;;;;;;;14.80;9.27;;;14.10;99.90;;;;;;4915919;29;20040;-58
2022/04/24 07:30:27;;;;;;;13.00;7.72;;;14.10;99.90;;;;;;4913551;29;20103;-59
2022/04/24 07:32:56;;;;;;;14.68;8.82;;;14.00;99.90;;;;;;4916431;29;20040;-59
2022/04/24 07:35:31;;;;;;;14.18;8.40;;;14.10;99.90;;;;;;4907483;29;20048;-59
2022/04/24 07:37:58;;;;;;;13.15;8.55;;;14.10;99.90;;;;;;4897097;29;20052;-58
2022/04/24 07:40:27;;;;;;;15.23;9.35;;;14.20;99.90;;;;;;4915532;29;20501;-59
2022/04/24 07:43:04;;;;;;;15.02;8.88;;;14.30;99.90;;;;;;4910748;29;20052;-59
2022/04/24 07:45:40;;;;;;;15.55;8.52;;;14.30;99.90;;;;;;4908966;29;20047;-59
2022/04/24 07:48:09;;;;;;;12.18;8.38;;;14.50;99.90;;;;;;4916013;29;20515;-59
2022/04/24 07:50:44;;;;;;;14.40;8.80;;;14.50;99.90;;;;;;4915772;29;20413;-59
2022/04/24 07:53:12;;;;;;;13.55;8.63;;;14.40;99.90;;;;;;4914817;29;20271;-59
2022/04/24 07:55:43;;;;;;;13.57;8.80;;;14.10;99.90;;;;;;4920914;29;20620;-59
2022/04/24 07:58:10;;;;;;;14.00;9.10;;;14.10;99.90;;;;;;4915686;29;20520;-59
2022/04/24 08:00:38;;;;;;;15.48;8.88;;;14.00;99.90;;;;;;4910531;29;20048;-59
2022/04/24 08:03:07;;;;;;;20.58;9.85;;;14.00;99.90;;;;;;4915339;29;20040;-58
2022/04/24 08:05:36;;;;;;;16.27;9.85;;;14.00;99.90;;;;;;4915276;29;20056;-59
2022/04/24 08:08:11;;;;;;;15.70;9.48;;;14.00;99.90;;;;;;4913941;29;20059;-58
2022/04/24 08:10:40;;;;;;;17.67;9.35;;;14.00;99.90;;;;;;4915356;29;20178;-59
2022/04/24 08:13:07;;;;;;;16.88;9.27;;;14.10;99.90;;;;;;4915509;29;20581;-59
2022/04/24 08:15:41;;;;;;;15.40;9.48;;;14.20;99.90;;;;;;4915429;29;20083;-59
2022/04/24 08:18:09;;;;;;;17.85;8.88;;;14.20;99.90;;;;;;4910608;29;20086;-59
2022/04/24 08:20:36;;;;;;;14.20;8.18;;;14.20;99.90;;;;;;4915146;29;20055;-59
2022/04/24 08:23:04;;;;;;;14.40;8.80;;;14.00;99.90;;;;;;4915610;29;20516;-58
2022/04/24 08:25:36;;;;;;;15.32;9.35;;;13.80;99.90;;;;;;4906916;29;20051;-58
2022/04/24 08:28:08;;;;;;;12.07;7.93;;;13.60;99.90;;;;;;4915627;29;20048;-59
2022/04/24 08:30:38;;;;;;;13.13;8.45;;;13.70;99.90;;;;;;4915070;29;20081;-59
2022/04/24 08:33:05;;;;;;;13.77;8.10;;;13.80;99.90;;;;;;4910203;29;20052;-58
2022/04/24 08:35:32;;;;;;;12.88;7.88;;;13.90;99.90;;;;;;4914454;29;20092;-58
2022/04/24 08:37:59;;;;;;;13.70;8.20;;;14.10;99.90;;;;;;4914469;29;20115;-55
2022/04/24 08:41:08;;;;;;;13.52;8.10;;;14.30;99.90;;;;;;4936925;23;21028;-57
2022/04/24 08:43:35;;;;;;;15.32;8.73;;;14.70;99.90;;;;;;4895463;29;20513;-53
2022/04/24 08:46:04;;;;;;;15.00;8.43;;;14.80;99.90;;;;;;4929222;29;20048;-56
2022/04/24 08:48:31;;;;;;;13.98;8.20;;;15.00;99.90;;;;;;4929268;29;20048;-52
2022/04/24 08:51:00;;;;;;;12.23;7.40;;;15.10;99.90;;;;;;4914961;29;20454;-53
2022/04/24 08:53:30;;;;;;;12.27;8.18;;;15.40;99.90;;;;;;4915182;29;20048;-55
2022/04/24 08:55:56;;;;;;;11.07;7.13;;;15.50;99.90;;;;;;4909164;29;20040;-52
2022/04/24 08:58:23;;;;;;;11.82;7.72;;;15.40;99.90;;;;;;4914578;29;20044;-54
2022/04/24 09:00:50;;;;;;;11.32;7.38;;;15.50;99.90;;;;;;4914505;29;20048;-56
2022/04/24 09:03:17;;;;;;;11.15;6.90;;;15.60;99.90;;;;;;4914348;29;20134;-56
2022/04/24 09:05:44;;;;;;;14.50;7.40;;;15.50;99.90;;;;;;4912447;29;20040;-55
2022/04/24 09:08:12;;;;;;;10.02;6.35;;;15.50;99.90;;;;;;4914608;29;20386;-52
2022/04/24 09:10:59;;;;;;;11.43;7.28;;;15.90;99.90;;;;;;4912727;29;20107;-56
2022/04/24 09:14:14;;;;;;;10.63;6.63;;;15.90;99.90;;;;;;4912395;29;20039;-56
2022/04/24 09:16:24;;;;;;;10.40;6.38;;;15.80;99.90;;;;;;4917719;29;20048;-56
2022/04/24 09:18:50;;;;;;;10.50;5.78;;;15.40;99.90;;;;;;4918664;29;20111;-55
2022/04/24 09:21:18;;;;;;;7.47;5.38;;;15.40;99.90;;;;;;4912033;29;20048;-57
2022/04/24 09:23:45;;;;;;;7.65;5.30;;;15.30;99.90;;;;;;4918173;29;20040;-56
2022/04/24 09:26:16;;;;;;;10.27;5.10;;;15.20;99.90;;;;;;4918323;29;20056;-55
2022/04/24 09:28:44;;;;;;;8.82;5.15;;;15.00;99.90;;;;;;4917402;29;20486;-57
2022/04/24 09:31:11;;;;;;;7.00;4.82;;;14.90;99.90;;;;;;4917578;29;20497;-56
2022/04/24 09:33:42;;;;;;;7.75;4.97;;;14.80;99.90;;;;;;4918672;29;20370;-57
2022/04/24 09:36:11;;;;;;;7.07;4.82;;;15.00;99.90;;;;;;4918071;29;20123;-56
2022/04/24 09:38:46;;;;;;;6.85;4.78;;;15.00;99.90;;;;;;4912817;29;20413;-52
2022/04/24 09:41:23;;;;;;;5.10;3.70;;;15.00;99.90;;;;;;4917761;29;20490;-55
2022/04/24 09:43:50;;;;;;;5.28;3.38;;;15.20;99.90;;;;;;4918208;29;20450;-52
2022/04/24 09:46:25;;;;;;;;;;;15.20;99.90;;;;;;4916365;29;20100;-54
2022/04/24 09:48:53;;;;;;;4.35;3.22;;;15.20;99.90;;;;;;4913529;29;19927;-56
2022/04/24 09:51:22;;;;;;;4.97;3.50;;;15.10;99.90;;;;;;4917473;29;20048;-57
2022/04/24 09:53:52;;;;;;;6.07;3.17;;;15.10;99.90;;;;;;4918045;29;20047;-54
2022/04/24 09:56:19;;;;;;;6.00;3.83;;;15.10;99.90;;;;;;4914870;29;20041;-52
2022/04/24 09:58:48;;;;;;;8.07;3.70;;;15.20;99.90;;;;;;4917361;29;20509;-53
2022/04/24 10:01:16;;;;;;;4.68;3.20;;;15.30;99.90;;;;;;4917256;29;20048;-52
2022/04/24 10:03:44;;;;;;;4.85;2.97;;;15.40;99.90;;;;;;4915929;29;20485;-53
2022/04/24 10:06:12;;;;;;;3.40;2.67;;;15.40;99.90;;;;;;4917180;29;20040;-55
2022/04/24 10:08:40;;;;;;;4.40;2.70;;;15.40;99.90;;;;;;4917109;29;20063;-55
2022/04/24 10:11:08;;;;;;;7.03;3.25;;;15.30;99.90;;;;;;4916978;29;20565;-52
2022/04/24 10:13:36;;;;;;;;;;;15.30;99.90;;;;;;4916018;29;20067;-55
2022/04/24 10:16:33;;;;;;;5.53;2.97;;;15.20;99.90;;;;;;4901017;29;19929;-56
2022/04/24 10:19:25;;;;;;;4.82;3.05;;;15.10;99.90;;;;;;4907706;29;20079;-55
2022/04/24 10:22:06;;;;;;;3.83;2.50;;;15.10;99.90;;;;;;4915017;29;20500;-55
2022/04/24 10:24:44;;;;;;;4.18;2.70;;;15.10;99.90;;;;;;4917305;29;20131;-56
2022/04/24 10:27:11;;;;;;;7.35;2.67;;;15.30;99.90;;;;;;4916520;29;20120;-54
2022/04/24 10:29:51;;;;;;;3.35;1.77;;;15.40;99.90;;;;;;4899418;29;20499;-57
2022/04/24 10:32:26;;;;;;;3.00;1.48;;;15.50;99.90;;;;;;4917378;29;20082;-55
2022/04/24 10:34:53;;;;;;;1.95;1.55;;;15.40;99.90;;;;;;4917321;29;20111;-55
2022/04/24 10:37:31;;;;;;;3.70;1.35;;;15.40;99.90;;;;;;4912171;29;20113;-56
2022/04/24 10:40:00;;;;;;;3.60;1.33;;;15.30;99.90;;;;;;4916817;29;20123;-56
2022/04/24 10:42:35;;;;;;;2.08;1.45;;;15.40;99.90;;;;;;4899990;29;20505;-54
2022/04/24 10:45:07;;;;;;;2.72;1.20;;;15.80;99.80;;;;;;4913908;29;20058;-57
2022/04/24 10:47:42;;;;;;;1.15;1.00;;;16.00;99.90;;;;;;4910195;29;20048;-52
2022/04/24 10:50:10;;;;;;;1.05;0.80;;;16.20;99.70;;;;;;4916801;29;20067;-55
2022/04/24 10:52:46;;;;;;;1.48;1.00;;;16.30;99.90;;;;;;4916856;29;20088;-56
2022/04/24 10:55:15;;;;;;;2.90;0.60;;;16.30;99.40;;;;;;4913083;29;20051;-52
2022/04/24 10:57:43;;;;;;;1.23;0.73;;;16.00;99.90;;;;;;4916157;29;20092;-56
2022/04/24 11:00:19;;;;;;;0.80;0.75;;;15.90;99.90;;;;;;4915167;29;20051;-54
2022/04/24 11:02:47;;;;;;;3.85;1.00;;;16.00;99.90;;;;;;4913865;29;20040;-55
2022/04/24 11:05:22;;;;;;;2.25;0.60;;;16.30;99.90;;;;;;4915940;29;20120;-56
2022/04/24 11:08:02;;;;;;;4.13;0.75;;;16.40;99.90;;;;;;4914330;29;20559;-56
2022/04/24 11:10:29;;;;;;;0.68;0.40;;;16.50;99.90;;;;;;4911720;29;20049;-56
2022/04/24 11:12:56;;;;;;;0.60;0.60;;;16.60;99.90;;;;;;4915509;29;20044;-55
2022/04/24 11:15:23;;;;;;;1.92;0.55;;;16.50;99.90;;;;;;4915759;29;20044;-52
2022/04/24 11:17:51;;;;;;;1.58;0.50;;;16.50;99.90;;;;;;4915893;29;20050;-55
2022/04/24 11:20:19;;;;;;;1.52;0.60;;;16.70;99.90;;;;;;4913334;29;20040;-53
2022/04/24 11:22:51;;;;;;;0.60;0.40;;;16.70;99.90;;;;;;4914615;29;20047;-55
2022/04/24 11:25:20;;;;;;;0.50;0.50;;;16.40;99.90;;;;;;4915372;29;20049;-53
2022/04/24 11:27:53;;;;;;;0.88;0.30;;;16.40;99.90;;;;;;4915322;29;20056;-54
2022/04/24 11:30:31;;;;;;;0.20;0.20;;;16.40;99.90;;;;;;4914241;29;20052;-56
2022/04/24 11:33:04;;;;;;;0.65;0.40;;;16.30;99.90;;;;;;4915116;29;20595;-54
2022/04/24 11:35:35;;;;;;;0.50;0.38;;;16.50;99.90;;;;;;4915254;29;20063;-53
2022/04/24 11:38:03;;;;;;;1.02;0.30;;;16.50;99.90;;;;;;4913619;29;20040;-55
2022/04/24 11:40:30;;;;;;;2.90;0.60;;;16.30;99.90;;;;;;4912977;29;21095;-57
2022/04/24 11:43:19;;;;;;;0.52;0.52;;;15.60;99.90;;;;;;4915201;29;20044;-54
2022/04/24 11:51:32;;;;;;;1.83;0.30;;;14.40;99.90;;;;;;4912663;29;20040;-55
2022/04/24 11:54:04;;;;;;;1.23;0.40;;;14.50;99.90;;;;;;4914894;29;20055;-54
2022/04/24 11:56:32;;;;;;;3.60;0.30;;;14.60;99.90;;;;;;4913881;29;20050;-55
2022/04/24 11:59:20;;;;;;;0.43;0.30;;;14.50;99.90;;;;;;4914917;29;20055;-53
2022/04/24 12:01:58;;;;;;;2.28;0.30;;;14.30;99.90;;;;;;4914285;29;20052;-56
2022/04/24 12:04:31;;;;;;;0.15;0.15;;;14.20;99.90;;;;;;4914050;29;20040;-54
2022/04/24 12:07:07;;;;;;;2.17;0.20;;;14.30;99.90;;;;;;4914919;29;20040;-54
2022/04/24 12:09:35;;;;;;;0.52;0.40;;;14.20;99.90;;;;;;4912336;29;20505;-55
2022/04/24 12:12:14;;;;;;;0.88;0.30;;;14.10;99.90;;;;;;4914954;29;20067;-54
2022/04/24 12:14:48;;;;;;;0.40;0.22;;;14.10;99.90;;;;;;4913644;29;20055;-54
2022/04/24 12:17:15;;;;;;;2.65;0.30;;;14.00;99.90;;;;;;4913764;29;20119;-51
2022/04/24 12:19:53;;;;;;;1.23;0.30;;;13.90;99.90;;;;;;4911949;29;20473;-52
2022/04/24 12:22:28;;;;;;;1.92;0.25;;;14.00;99.90;;;;;;4913580;29;20044;-53
2022/04/24 12:25:17;;;;;;;1.92;0.20;;;14.00;99.90;;;;;;4907766;29;20051;-51
2022/04/24 12:27:54;;;;;;;2.05;0.20;;;14.00;99.90;;;;;;4912803;29;20056;-51
2022/04/24 12:30:22;;;;;;;0.38;0.20;;;14.00;99.90;;;;;;4911385;29;20074;-51
2022/04/24 12:32:49;;;;;;;1.85;0.32;;;14.20;99.90;;;;;;4914166;29;20087;-54
2022/04/24 12:35:30;;;;;;;0.30;0.20;;;14.20;99.90;;;;;;4914102;29;20497;-53
2022/04/24 12:37:58;;;;;;;2.03;0.30;;;14.40;99.90;;;;;;4914637;29;20040;-52
2022/04/24 12:40:24;;;;;;;;;;;14.40;99.90;;;;;;4912283;29;20054;-56
2022/04/24 12:42:55;;;;;;;0.57;0.10;;;14.30;99.90;;;;;;4914109;29;19923;-53
2022/04/24 12:45:24;;;;;;;0.40;0.30;;;14.70;99.90;;;;;;4914118;29;20059;-54
2022/04/24 12:47:51;;;;;;;0.20;0.20;;;15.00;99.90;;;;;;4912839;29;20040;-54
2022/04/24 12:50:18;;;;;;;0.38;0.30;;;15.00;99.90;;;;;;4916968;29;20501;-55
2022/04/24 12:52:45;;;;;;;1.15;0.15;;;15.20;99.90;;;;;;4920861;29;20054;-53
2022/04/24 12:55:12;;;;;;;0.98;0.55;;;15.00;99.90;;;;;;4916205;29;20072;-54
2022/04/24 12:57:40;;;;;;;0.17;0.17;;;14.80;99.90;;;;;;4920806;29;20040;-55
2022/04/24 13:00:07;;;;;;;0.00;0.00;;;14.60;99.90;;;;;;4919647;29;20052;-53
2022/04/24 13:02:34;;;;;;;;;;;14.60;99.90;;;;;;4914279;29;20516;-53
2022/04/24 13:05:01;;;;;;;1.17;0.20;;;14.50;99.90;;;;;;4912096;29;19927;-52